Airfield :
LOGIN :

Register | Disclaimer

   EN    FR    IT 

 










Legend :    VFR   Marginal VFR   IFR   Intensive IFR   Very Intensive IFR
Visi :
Ceiling :
>= 8 km
>= 3000ft
5 to 8 km
1000 to 3000 ft
1500m to 5 km
500 to 1000 ft
800 to 1500m
200 to 500 ft
< 800m
< 200 ft
Symbols :   Thunderstorms  Fog  Heavy snow  Heavy precipitations  Wind > 20 kt
SIGMETs :     Misc.  Thunderstorms  Icing  Turbulence  Mountain Waves  Volcanic Ashes






- Airport Elevation : 124 ft
- IATA code : RNS


LFRN - Rennes

CURRENT METAR :
  • 102330Z AUTO 30004KT 7000 -RA FEW012/// OVC030/// ///TCU 08/08 Q1014 BECMG BKN020

EXPIRED METARs :
  • 102300Z AUTO 29006KT 5000 -RA BR BKN008/// BKN019/// BKN025/// ///TCU 08/08 Q1014 BECMG 22010KT BKN020
  • 102230Z AUTO 20013KT 180V290 7000 -RA OVC007/// ///TCU 11/10 Q1013 TEMPO 3000 RA BECMG BKN020
  • 102200Z AUTO 19015KT 5000 -RA BR OVC007/// ///CB 11/10 Q1013 TEMPO 30020G30KT RA BKN005
  • 102130Z AUTO 19017KT 9000 OVC008 11/10 Q1013 TEMPO 30020G30KT 3000 RA
  • 102100Z AUTO 19016KT 9999 OVC009 11/10 Q1013 TEMPO 3000 RA BECMG 30020G30KT

TAF TAF LFRN
Valid from the 11 at 00:00 until the 12 at 00:00 UTC


102300Z 1100/1124 VRB05KT 9999 BKN020
BECMG 1100/1102 20006KT
TEMPO 1108/1118 5000 SHRA BKN015TCU
BECMG 1109/1111 22010KT
TEMPO 1112/1120 21020G33KT 2000 TSRAGS BKN008 BKN015CB
ATIS : +33 2 99 67 72 50



MET'MAP, your aeronautical weather chart ! - Copyright ORBIFLY December 2007 - Disclaimer

ORBIFLY MET'MAP TEAM :

Programming & Development : Alexandra Zaïnal
Concept & original design : Baudouin d'Aumeries
Assistance for programming : Marc-Olivier Méhu
Technical & hardware support : Manuel Goepfert

Contact : metmap@orbifly.com




SOURCES & CREDITS :

   NOAA